createdAt,value
2022-09-07T00:01:08.972Z,15.05
2022-09-07T00:03:36.876Z,15.07
2022-09-07T00:06:10.839Z,15.09
2022-09-07T00:08:40.490Z,15.12
2022-09-07T00:11:14.227Z,15.14
2022-09-07T00:13:44.334Z,15.19
2022-09-07T00:16:32.346Z,15.23
2022-09-07T00:19:03.817Z,15.20
2022-09-07T00:21:32.299Z,15.15
2022-09-07T00:24:00.068Z,15.13
2022-09-07T00:26:31.037Z,15.10
2022-09-07T00:29:02.087Z,15.10
2022-09-07T00:31:31.664Z,15.12
2022-09-07T00:34:02.098Z,15.13
2022-09-07T00:36:30.749Z,15.13
2022-09-07T00:38:58.715Z,15.15
2022-09-07T00:41:26.629Z,15.26
2022-09-07T00:43:59.309Z,15.30
2022-09-07T00:46:34.015Z,15.34
2022-09-07T00:49:15.223Z,15.40
2022-09-07T00:51:51.240Z,15.38
2022-09-07T00:54:25.604Z,15.40
2022-09-07T00:56:54.085Z,15.44
2022-09-07T00:59:29.266Z,15.45
2022-09-07T01:01:57.391Z,15.47
2022-09-07T01:04:25.773Z,15.51
2022-09-07T01:06:55.341Z,15.52
2022-09-07T01:09:25.769Z,15.51
2022-09-07T01:11:58.781Z,15.53
2022-09-07T01:14:31.573Z,15.52
2022-09-07T01:17:18.992Z,15.51
2022-09-07T01:20:17.133Z,15.56
2022-09-07T01:22:54.006Z,15.57
2022-09-07T01:26:08.348Z,15.61
2022-09-07T01:28:38.870Z,15.57
2022-09-07T01:31:41.623Z,15.60
2022-09-07T01:34:25.159Z,15.60
2022-09-07T01:37:32.782Z,15.67
2022-09-07T01:40:47.016Z,15.69
2022-09-07T01:43:40.155Z,15.69
2022-09-07T01:46:19.195Z,15.70
2022-09-07T01:48:51.876Z,15.73
2022-09-07T01:51:23.074Z,15.78
2022-09-07T01:53:57.661Z,15.84
2022-09-07T01:56:39.101Z,15.90
2022-09-07T01:59:43.484Z,15.92
2022-09-07T02:02:19.575Z,15.96
2022-09-07T02:04:58.565Z,15.99
2022-09-07T02:07:35.723Z,16.02
2022-09-07T02:10:38.237Z,16.09
2022-09-07T02:13:17.250Z,16.13
2022-09-07T02:15:58.087Z,16.20
2022-09-07T02:18:36.371Z,16.24
2022-09-07T02:21:10.899Z,16.20
2022-09-07T02:23:46.590Z,16.18
2022-09-07T02:26:20.898Z,16.19
2022-09-07T02:28:49.478Z,16.19
2022-09-07T02:31:17.339Z,16.17
2022-09-07T02:33:45.186Z,16.15
2022-09-07T02:36:18.133Z,16.14
2022-09-07T02:38:45.809Z,16.15
2022-09-07T02:41:30.199Z,16.15
2022-09-07T02:43:59.143Z,16.13
2022-09-07T02:46:41.679Z,16.11
2022-09-07T02:49:22.818Z,16.11
2022-09-07T02:52:17.685Z,16.16
2022-09-07T02:55:12.749Z,16.21
2022-09-07T02:57:49.551Z,16.33
2022-09-07T03:00:25.996Z,16.31
2022-09-07T03:03:23.405Z,16.28
2022-09-07T03:06:14.594Z,16.30
2022-09-07T03:08:50.521Z,16.34
2022-09-07T03:11:20.103Z,16.37
2022-09-07T03:13:47.987Z,16.44
2022-09-07T03:16:16.047Z,16.46
2022-09-07T03:18:44.369Z,16.48
2022-09-07T03:21:12.109Z,16.45
2022-09-07T03:23:39.918Z,16.43
2022-09-07T03:26:07.663Z,16.43
2022-09-07T03:28:35.365Z,16.44
2022-09-07T03:31:03.167Z,16.47
2022-09-07T03:33:30.912Z,16.50
2022-09-07T03:36:02.437Z,16.52
2022-09-07T03:38:31.368Z,16.54
2022-09-07T03:41:07.667Z,16.56
2022-09-07T03:43:35.368Z,16.54
2022-09-07T03:46:06.316Z,16.53
2022-09-07T03:48:36.079Z,16.51
2022-09-07T03:51:09.918Z,16.50
2022-09-07T03:53:41.778Z,16.53
2022-09-07T03:56:19.731Z,16.57
2022-09-07T03:58:49.521Z,16.59
2022-09-07T04:01:21.961Z,16.59
2022-09-07T04:03:50.694Z,16.55
2022-09-07T04:06:19.663Z,16.54
2022-09-07T04:08:47.709Z,16.53
2022-09-07T04:11:18.405Z,16.52
2022-09-07T04:13:47.242Z,16.50
2022-09-07T04:16:24.861Z,16.48
2022-09-07T04:18:58.883Z,16.49
2022-09-07T04:21:30.870Z,16.50
2022-09-07T04:23:59.206Z,16.49
2022-09-07T04:26:32.336Z,16.46
2022-09-07T04:29:01.211Z,16.40
2022-09-07T04:31:29.369Z,16.40
2022-09-07T04:33:57.206Z,16.37
2022-09-07T04:36:25.119Z,16.36
2022-09-07T04:39:01.938Z,16.35
2022-09-07T04:41:32.661Z,16.36
2022-09-07T04:44:03.097Z,16.37
2022-09-07T04:46:35.678Z,16.36
2022-09-07T04:49:10.675Z,16.37
2022-09-07T04:51:39.981Z,16.42
2022-09-07T04:54:08.186Z,16.41
2022-09-07T04:56:36.342Z,16.43
2022-09-07T04:59:04.952Z,16.44
2022-09-07T05:01:33.077Z,16.40
2022-09-07T05:04:18.629Z,16.38
2022-09-07T05:06:46.395Z,16.36
2022-09-07T05:09:14.291Z,16.31
2022-09-07T05:11:42.005Z,16.25
2022-09-07T05:14:10.398Z,16.22
2022-09-07T05:16:38.211Z,16.19
2022-09-07T05:19:06.125Z,16.12
2022-09-07T05:21:35.104Z,16.08
2022-09-07T05:24:04.325Z,16.05
2022-09-07T05:26:36.222Z,16.05
2022-09-07T05:31:54.819Z,16.10
2022-09-07T05:34:31.106Z,16.09
2022-09-07T05:36:59.493Z,16.11
2022-09-07T05:39:27.917Z,16.10
2022-09-07T05:41:55.839Z,16.08
2022-09-07T05:47:11.909Z,16.05
2022-09-07T05:49:40.045Z,16.03
2022-09-07T05:52:08.072Z,16.01
2022-09-07T05:54:35.932Z,16.01
2022-09-07T05:57:04.247Z,15.99
2022-09-07T05:59:32.125Z,16.02
2022-09-07T06:02:00.103Z,16.00
2022-09-07T06:04:28.082Z,15.99
2022-09-07T06:07:21.732Z,15.97
2022-09-07T06:12:31.675Z,15.97
2022-09-07T06:15:01.496Z,16.00
2022-09-07T06:17:29.883Z,15.97
2022-09-07T06:19:57.859Z,15.97
2022-09-07T06:22:28.958Z,15.98
2022-09-07T06:24:58.825Z,15.97
2022-09-07T06:27:27.170Z,15.94
2022-09-07T06:29:55.635Z,15.98
2022-09-07T06:35:12.525Z,16.09
2022-09-07T06:37:41.546Z,16.16
2022-09-07T06:40:12.065Z,16.23
2022-09-07T06:42:40.025Z,16.31
2022-09-07T06:45:11.266Z,16.33
2022-09-07T06:47:40.734Z,16.38
2022-09-07T06:50:09.511Z,16.43
2022-09-07T06:55:27.898Z,16.45
2022-09-07T06:57:56.526Z,16.47
2022-09-07T07:00:24.769Z,16.54
2022-09-07T07:02:52.774Z,16.64
2022-09-07T07:05:20.525Z,16.74
2022-09-07T07:07:48.295Z,16.86
2022-09-07T07:10:17.859Z,17.01
2022-09-07T07:12:47.584Z,17.15
2022-09-07T07:15:15.357Z,17.26
2022-09-07T07:17:43.849Z,17.26
2022-09-07T07:20:12.079Z,17.26
2022-09-07T07:22:46.580Z,17.32
2022-09-07T07:25:15.401Z,17.38
2022-09-07T07:27:45.821Z,17.42
2022-09-07T07:30:16.037Z,17.47
2022-09-07T07:32:45.021Z,17.55
2022-09-07T07:35:14.173Z,17.60
2022-09-07T07:37:42.066Z,17.67
2022-09-07T07:42:42.842Z,17.79
2022-09-07T07:47:59.706Z,18.16
2022-09-07T07:50:31.648Z,18.36
2022-09-07T07:55:48.491Z,18.53
2022-09-07T07:58:16.248Z,18.42
2022-09-07T08:00:54.146Z,18.35
2022-09-07T08:03:25.209Z,18.27
2022-09-07T08:05:54.902Z,18.25
2022-09-07T08:08:24.118Z,18.28
2022-09-07T08:10:52.973Z,18.33
2022-09-07T08:13:21.462Z,18.35
2022-09-07T08:15:49.393Z,18.49
2022-09-07T08:18:17.762Z,18.71
2022-09-07T08:20:45.493Z,18.89
2022-09-07T08:23:14.678Z,19.02
2022-09-07T08:25:53.535Z,19.18
2022-09-07T08:28:27.421Z,19.24
2022-09-07T08:30:56.538Z,19.21
2022-09-07T08:33:25.005Z,19.13
2022-09-07T08:36:01.723Z,19.02
2022-09-07T08:38:32.036Z,18.93
2022-09-07T08:41:02.776Z,18.93
2022-09-07T08:43:59.816Z,18.96
2022-09-07T08:46:50.628Z,18.99
2022-09-07T08:49:36.330Z,18.92
2022-09-07T08:52:14.416Z,18.87
2022-09-07T08:54:49.839Z,18.88
2022-09-07T08:57:27.213Z,18.95
2022-09-07T09:00:07.021Z,19.04
2022-09-07T09:02:43.498Z,19.13
2022-09-07T09:05:28.171Z,19.13
2022-09-07T09:08:23.327Z,18.99
2022-09-07T09:11:12.043Z,18.94
2022-09-07T09:13:58.312Z,18.85
2022-09-07T09:16:45.602Z,18.78
2022-09-07T09:19:30.653Z,18.77
2022-09-07T09:22:11.029Z,18.75
2022-09-07T09:24:46.818Z,18.75
2022-09-07T09:27:15.760Z,18.79
2022-09-07T09:29:44.049Z,18.89
2022-09-07T09:32:41.726Z,18.95
2022-09-07T09:35:32.643Z,18.92
2022-09-07T09:38:03.475Z,18.96
2022-09-07T09:40:35.190Z,19.04
2022-09-07T09:43:22.040Z,19.15
2022-09-07T09:48:43.052Z,19.55
2022-09-07T09:54:16.922Z,19.99
2022-09-07T09:56:47.321Z,20.10
2022-09-07T10:05:37.974Z,20.66
2022-09-07T10:08:30.842Z,20.82
2022-09-07T10:11:10.418Z,20.98
2022-09-07T10:13:54.914Z,21.09
2022-09-07T10:16:41.530Z,21.22
2022-09-07T10:19:34.707Z,21.37
2022-09-07T10:22:20.649Z,21.54
2022-09-07T10:24:48.825Z,21.58
2022-09-07T10:27:37.969Z,21.57
2022-09-07T10:30:16.692Z,21.71
2022-09-07T10:33:04.922Z,21.94
2022-09-07T10:35:52.218Z,22.10
2022-09-07T10:38:25.935Z,22.23
2022-09-07T10:41:05.790Z,22.14
2022-09-07T10:43:47.265Z,22.08
2022-09-07T10:49:31.058Z,22.22
2022-09-07T10:52:41.261Z,22.48
2022-09-07T10:55:35.710Z,22.76
2022-09-07T10:59:01.425Z,22.65
2022-09-07T11:01:45.404Z,22.26
2022-09-07T11:04:59.448Z,21.63
2022-09-07T11:07:53.016Z,20.72
2022-09-07T11:10:43.083Z,20.14
2022-09-07T11:13:18.636Z,19.58
2022-09-07T11:15:58.518Z,19.10
2022-09-07T11:18:37.558Z,18.74
2022-09-07T11:21:56.283Z,18.56
2022-09-07T11:24:16.470Z,18.45
2022-09-07T11:26:57.841Z,18.48
2022-09-07T11:29:56.804Z,18.55
2022-09-07T11:32:41.815Z,18.73
2022-09-07T11:35:12.242Z,18.92
2022-09-07T11:37:59.190Z,19.07
2022-09-07T11:40:57.405Z,19.15
2022-09-07T11:43:35.220Z,19.22
2022-09-07T11:46:13.391Z,19.24
2022-09-07T11:49:27.776Z,19.17
2022-09-07T11:52:30.702Z,19.21
2022-09-07T11:55:06.794Z,19.24
2022-09-07T11:57:56.127Z,19.33
2022-09-07T12:00:45.667Z,19.46
2022-09-07T12:03:43.131Z,19.50
2022-09-07T12:06:54.356Z,19.65
2022-09-07T12:10:01.569Z,19.70
2022-09-07T12:12:44.061Z,19.66
2022-09-07T12:16:00.749Z,19.63
2022-09-07T12:19:11.926Z,19.70
2022-09-07T12:21:51.733Z,19.83
2022-09-07T12:24:42.384Z,19.99
2022-09-07T12:27:11.463Z,20.23
2022-09-07T12:29:45.132Z,20.45
2022-09-07T12:32:57.338Z,20.63
2022-09-07T12:35:29.686Z,20.60
2022-09-07T12:38:30.487Z,20.56
2022-09-07T12:41:01.653Z,20.51
2022-09-07T12:43:35.756Z,20.42
2022-09-07T12:46:03.726Z,20.40
2022-09-07T12:48:42.186Z,20.35
2022-09-07T12:55:16.434Z,20.42
2022-09-07T12:58:13.654Z,20.37
2022-09-07T13:01:27.726Z,20.51
2022-09-07T13:04:20.871Z,20.59
2022-09-07T13:07:12.593Z,20.65
2022-09-07T13:09:41.995Z,20.67
2022-09-07T13:15:51.836Z,20.60
2022-09-07T13:18:28.741Z,20.58
2022-09-07T13:21:08.339Z,20.57
2022-09-07T13:23:45.762Z,20.54
2022-09-07T13:27:26.871Z,20.49
2022-09-07T13:30:05.000Z,20.41
2022-09-07T13:35:25.006Z,20.37
2022-09-07T13:38:03.988Z,20.35
2022-09-07T13:40:39.705Z,20.28
2022-09-07T13:43:17.909Z,20.25
2022-09-07T13:45:54.587Z,20.38
2022-09-07T13:48:35.497Z,20.56
2022-09-07T13:51:29.194Z,20.69
2022-09-07T13:54:52.629Z,20.81
2022-09-07T13:57:48.941Z,20.97
2022-09-07T14:00:19.841Z,20.99
2022-09-07T14:02:56.856Z,20.95
2022-09-07T14:05:24.999Z,20.99
2022-09-07T14:07:52.610Z,20.95
2022-09-07T14:10:25.517Z,20.92
2022-09-07T14:13:06.324Z,20.90
2022-09-07T14:15:45.981Z,20.89
2022-09-07T14:18:29.108Z,20.89
2022-09-07T14:20:58.719Z,20.94
2022-09-07T14:23:31.359Z,21.02
2022-09-07T14:26:23.982Z,21.09
2022-09-07T14:28:56.989Z,21.22
2022-09-07T14:31:25.778Z,21.31
2022-09-07T14:33:58.117Z,21.38
2022-09-07T14:36:45.830Z,21.38
2022-09-07T14:39:18.458Z,21.28
2022-09-07T14:41:47.232Z,21.20
2022-09-07T14:44:32.550Z,21.20
2022-09-07T14:47:29.198Z,21.24
2022-09-07T14:50:06.890Z,21.32
2022-09-07T14:53:33.288Z,21.29
2022-09-07T14:55:35.794Z,21.07
2022-09-07T14:58:15.661Z,20.87
2022-09-07T15:01:37.267Z,20.70
2022-09-07T15:03:40.941Z,20.55
2022-09-07T15:07:00.890Z,20.46
2022-09-07T15:08:59.022Z,20.37
2022-09-07T15:11:33.569Z,20.28
2022-09-07T15:14:20.910Z,20.17
2022-09-07T15:19:50.273Z,19.92
2022-09-07T15:22:18.955Z,19.85
2022-09-07T15:24:47.756Z,19.82
2022-09-07T15:27:28.949Z,19.81
2022-09-07T15:29:56.486Z,19.89
2022-09-07T15:32:24.183Z,19.95
2022-09-07T15:34:51.979Z,19.99
2022-09-07T15:40:22.247Z,20.26
2022-09-07T15:43:19.661Z,20.49
2022-09-07T15:45:39.656Z,20.61
2022-09-07T15:48:07.718Z,20.65
2022-09-07T15:50:35.443Z,20.63
2022-09-07T15:53:03.421Z,20.65
2022-09-07T15:55:31.271Z,20.71
2022-09-07T15:58:10.928Z,20.80
2022-09-07T16:00:39.906Z,20.94
2022-09-07T16:03:08.648Z,21.02
2022-09-07T16:05:43.973Z,21.06
2022-09-07T16:08:32.732Z,21.10
2022-09-07T16:11:18.740Z,21.12
2022-09-07T16:13:48.135Z,21.09
2022-09-07T16:16:16.444Z,21.06
2022-09-07T16:18:46.976Z,21.06
2022-09-07T16:21:16.178Z,21.02
2022-09-07T16:23:48.883Z,20.98
2022-09-07T16:26:20.780Z,21.03
2022-09-07T16:28:50.891Z,21.19
2022-09-07T16:31:23.460Z,21.41
2022-09-07T16:33:52.037Z,21.62
2022-09-07T16:36:23.537Z,21.81
2022-09-07T16:39:00.538Z,21.96
2022-09-07T16:41:34.656Z,21.95
2022-09-07T16:44:02.942Z,21.74
2022-09-07T16:46:31.289Z,21.56
2022-09-07T16:48:58.981Z,21.45
2022-09-07T16:51:27.416Z,21.32
2022-09-07T16:53:59.308Z,21.16
2022-09-07T16:56:34.565Z,21.06
2022-09-07T16:59:09.687Z,20.94
2022-09-07T17:01:38.290Z,20.89
2022-09-07T17:04:10.634Z,20.80
2022-09-07T17:06:39.989Z,20.66
2022-09-07T17:09:08.326Z,20.56
2022-09-07T17:11:37.384Z,20.50
2022-09-07T17:14:06.741Z,20.51
2022-09-07T17:16:38.485Z,20.52
2022-09-07T17:21:59.891Z,20.42
2022-09-07T17:24:29.569Z,20.36
2022-09-07T17:27:01.156Z,20.33
2022-09-07T17:29:30.742Z,20.25
2022-09-07T17:32:29.533Z,20.16
2022-09-07T17:34:47.366Z,20.00
2022-09-07T17:37:15.026Z,19.91
2022-09-07T17:39:42.931Z,19.80
2022-09-07T17:42:10.849Z,19.70
2022-09-07T17:44:39.957Z,19.63
2022-09-07T17:47:07.761Z,19.58
2022-09-07T17:49:35.517Z,19.49
2022-09-07T17:52:03.261Z,19.43
2022-09-07T17:54:32.034Z,19.37
2022-09-07T17:56:59.929Z,19.34
2022-09-07T18:02:19.047Z,19.27
2022-09-07T18:04:46.838Z,19.23
2022-09-07T18:07:15.587Z,19.16
2022-09-07T18:09:43.611Z,19.07
2022-09-07T18:12:11.315Z,19.00
2022-09-07T18:14:38.974Z,18.95
2022-09-07T18:17:06.801Z,18.88
2022-09-07T18:19:34.463Z,18.83
2022-09-07T18:22:03.838Z,18.77
2022-09-07T18:24:32.040Z,18.68
2022-09-07T18:26:59.829Z,18.57
2022-09-07T18:29:30.231Z,18.51
2022-09-07T18:32:05.697Z,18.47
2022-09-07T18:34:36.597Z,18.42
2022-09-07T18:37:04.855Z,18.33
2022-09-07T18:39:33.594Z,18.26
2022-09-07T18:42:01.341Z,18.19
2022-09-07T18:47:23.366Z,18.06
2022-09-07T18:49:55.909Z,18.03
2022-09-07T18:55:11.912Z,17.97
2022-09-07T18:57:39.677Z,17.92
2022-09-07T19:00:09.811Z,17.87
2022-09-07T19:02:37.800Z,17.80
2022-09-07T19:07:54.085Z,17.65
2022-09-07T19:10:21.898Z,17.59
2022-09-07T19:12:49.557Z,17.55
2022-09-07T19:15:17.281Z,17.52
2022-09-07T19:17:44.975Z,17.45
2022-09-07T19:20:12.715Z,17.47
2022-09-07T19:22:42.753Z,17.49
2022-09-07T19:25:11.312Z,17.48
2022-09-07T19:27:39.197Z,17.47
2022-09-07T19:30:07.838Z,17.47
2022-09-07T19:32:35.506Z,17.49
2022-09-07T19:35:03.548Z,17.47
2022-09-07T19:37:32.760Z,17.46
2022-09-07T19:40:01.299Z,17.48
2022-09-07T19:42:29.575Z,17.49
2022-09-07T19:44:57.369Z,17.47
2022-09-07T19:47:25.155Z,17.49
2022-09-07T19:49:52.902Z,17.50
2022-09-07T19:52:20.673Z,17.52
2022-09-07T19:54:48.399Z,17.55
2022-09-07T19:57:16.179Z,17.60
2022-09-07T19:59:45.683Z,17.64
2022-09-07T20:02:13.516Z,17.67
2022-09-07T20:04:41.328Z,17.65
2022-09-07T20:07:09.475Z,17.66
2022-09-07T20:09:37.472Z,17.69
2022-09-07T20:12:08.342Z,17.71
2022-09-07T20:14:36.176Z,17.72
2022-09-07T20:17:04.071Z,17.67
2022-09-07T20:19:31.781Z,17.63
2022-09-07T20:21:59.565Z,17.64
2022-09-07T20:24:27.340Z,17.63
2022-09-07T20:26:55.050Z,17.65
2022-09-07T20:29:27.856Z,17.66
2022-09-07T20:32:01.155Z,17.73
2022-09-07T20:34:29.109Z,17.83
2022-09-07T20:36:57.196Z,17.86
2022-09-07T20:39:25.459Z,17.83
2022-09-07T20:41:53.265Z,17.83
2022-09-07T20:44:20.914Z,17.82
2022-09-07T20:46:48.685Z,17.81
2022-09-07T20:49:16.567Z,17.74
2022-09-07T20:51:44.272Z,17.62
2022-09-07T20:54:11.901Z,17.46
2022-09-07T20:56:39.698Z,17.29
2022-09-07T20:59:07.499Z,17.01
2022-09-07T21:01:35.462Z,16.76
2022-09-07T21:04:04.696Z,16.56
2022-09-07T21:06:32.932Z,16.35
2022-09-07T21:09:01.310Z,16.12
2022-09-07T21:11:35.259Z,15.95
2022-09-07T21:14:12.114Z,15.82
2022-09-07T21:16:40.036Z,15.73
2022-09-07T21:19:11.077Z,15.69
2022-09-07T21:21:43.009Z,15.65
2022-09-07T21:24:21.714Z,15.60
2022-09-07T21:26:51.273Z,15.56
2022-09-07T21:29:23.740Z,15.59
2022-09-07T21:31:55.214Z,15.63
2022-09-07T21:34:23.450Z,15.71
2022-09-07T21:36:51.441Z,15.74
2022-09-07T21:39:20.737Z,15.74
2022-09-07T21:41:48.830Z,15.72
2022-09-07T21:44:17.120Z,15.74
2022-09-07T21:46:46.005Z,15.69
2022-09-07T21:49:13.752Z,15.67
2022-09-07T21:51:41.427Z,15.56
2022-09-07T21:54:09.536Z,15.46
2022-09-07T21:56:37.302Z,15.40
2022-09-07T21:59:06.209Z,15.40
2022-09-07T22:01:33.943Z,15.46
2022-09-07T22:04:05.016Z,15.47
2022-09-07T22:06:33.794Z,15.47
2022-09-07T22:09:03.737Z,15.48
2022-09-07T22:11:32.384Z,15.43
2022-09-07T22:14:03.570Z,15.39
2022-09-07T22:16:32.796Z,15.45
2022-09-07T22:19:01.187Z,15.47
2022-09-07T22:21:30.751Z,15.38
2022-09-07T22:24:02.603Z,15.32
2022-09-07T22:26:37.574Z,15.30
2022-09-07T22:29:07.850Z,15.28
2022-09-07T22:31:37.645Z,15.25
2022-09-07T22:34:08.480Z,15.27
2022-09-07T22:36:43.431Z,15.24
2022-09-07T22:39:16.663Z,15.21
2022-09-07T22:41:47.077Z,15.23
2022-09-07T22:44:18.142Z,15.23
2022-09-07T22:46:47.518Z,15.30
2022-09-07T22:49:17.073Z,15.35
2022-09-07T22:51:45.922Z,15.39
2022-09-07T22:54:13.821Z,15.45
2022-09-07T22:56:41.805Z,15.45
2022-09-07T22:59:11.893Z,15.44
2022-09-07T23:01:40.439Z,15.50
2022-09-07T23:04:10.219Z,15.54
2022-09-07T23:06:41.435Z,15.60
2022-09-07T23:09:13.736Z,15.56
2022-09-07T23:11:42.553Z,15.52
2022-09-07T23:14:17.229Z,15.48
2022-09-07T23:16:45.869Z,15.43
2022-09-07T23:19:16.746Z,15.46
2022-09-07T23:21:44.741Z,15.45
2022-09-07T23:24:18.738Z,15.44
2022-09-07T23:26:46.997Z,15.41
2022-09-07T23:29:15.993Z,15.40
2022-09-07T23:31:46.986Z,15.40
2022-09-07T23:34:15.096Z,15.38
2022-09-07T23:36:42.795Z,15.33
2022-09-07T23:39:11.034Z,15.31
2022-09-07T23:41:38.685Z,15.32
2022-09-07T23:44:06.493Z,15.29
2022-09-07T23:46:34.559Z,15.32
2022-09-07T23:49:02.574Z,15.34
2022-09-07T23:51:30.262Z,15.34
2022-09-07T23:53:57.974Z,15.32
2022-09-07T23:56:26.194Z,15.34
2022-09-07T23:58:53.821Z,15.34
